createdAt,value
2023-01-29T00:00:17.260Z,43.28
2023-01-29T00:01:52.299Z,34.47
2023-01-29T00:03:25.545Z,54.25
2023-01-29T00:05:10.008Z,49.83
2023-01-29T00:06:50.107Z,45.88
2023-01-29T00:08:22.376Z,39.05
2023-01-29T00:09:55.622Z,29.33
2023-01-29T00:11:28.948Z,23.23
2023-01-29T00:13:02.310Z,21.27
2023-01-29T00:14:35.632Z,22.73
2023-01-29T00:16:09.086Z,19.15
2023-01-29T00:17:43.586Z,21.40
2023-01-29T00:19:17.713Z,22.80
2023-01-29T00:20:50.224Z,23.75
2023-01-29T00:22:23.496Z,25.60
2023-01-29T00:23:56.678Z,41.30
2023-01-29T00:25:30.175Z,30.58
2023-01-29T00:27:02.367Z,33.80
2023-01-29T00:28:36.417Z,36.92
2023-01-29T00:30:13.387Z,32.50
2023-01-29T00:31:46.865Z,33.40
2023-01-29T00:33:21.956Z,36.47
2023-01-29T00:34:55.117Z,42.53
2023-01-29T00:36:28.483Z,41.67
2023-01-29T00:38:01.681Z,48.72
2023-01-29T00:39:47.423Z,35.03
2023-01-29T00:41:52.980Z,41.65
2023-01-29T00:43:43.581Z,35.30
2023-01-29T00:45:17.013Z,33.95
2023-01-29T00:46:51.853Z,32.08
2023-01-29T00:48:26.608Z,28.60
2023-01-29T00:49:58.984Z,30.02
2023-01-29T00:51:33.742Z,28.27
2023-01-29T00:53:06.845Z,30.58
2023-01-29T00:54:40.007Z,28.63
2023-01-29T00:56:13.342Z,26.10
2023-01-29T00:57:46.672Z,28.05
2023-01-29T00:59:19.945Z,26.13
2023-01-29T01:00:53.548Z,25.70
2023-01-29T01:02:45.183Z,23.67
2023-01-29T01:04:18.899Z,25.95
2023-01-29T01:06:04.413Z,26.70
2023-01-29T01:07:37.016Z,23.83
2023-01-29T01:09:33.817Z,21.45
2023-01-29T01:11:08.621Z,27.17
2023-01-29T01:12:40.750Z,24.63
2023-01-29T01:14:13.879Z,25.15
2023-01-29T01:15:48.898Z,24.77
2023-01-29T01:17:22.064Z,24.77
2023-01-29T01:18:55.201Z,83.35
2023-01-29T01:20:32.080Z,72.35
2023-01-29T01:22:05.165Z,51.78
2023-01-29T01:23:38.574Z,32.38
2023-01-29T01:25:10.920Z,32.08
2023-01-29T01:26:44.215Z,23.50
2023-01-29T01:28:17.461Z,26.60
2023-01-29T01:29:50.503Z,22.67
2023-01-29T01:31:23.724Z,24.70
2023-01-29T01:32:56.915Z,24.42
2023-01-29T01:34:29.071Z,21.13
2023-01-29T01:36:04.329Z,21.25
2023-01-29T01:37:38.894Z,21.55
2023-01-29T01:39:12.018Z,23.38
2023-01-29T01:40:47.246Z,20.48
2023-01-29T01:42:20.605Z,34.05
2023-01-29T01:43:57.500Z,33.08
2023-01-29T01:45:32.727Z,35.97
2023-01-29T01:47:05.140Z,41.90
2023-01-29T01:48:38.769Z,30.98
2023-01-29T01:50:16.922Z,36.40
2023-01-29T01:51:53.757Z,32.13
2023-01-29T01:53:30.869Z,29.50
2023-01-29T01:55:05.757Z,27.45
2023-01-29T01:56:45.163Z,28.77
2023-01-29T01:58:26.045Z,32.38
2023-01-29T02:00:10.191Z,38.30
2023-01-29T02:01:55.466Z,29.92
2023-01-29T02:03:50.301Z,38.58
2023-01-29T02:05:41.613Z,25.35
2023-01-29T02:07:34.498Z,23.67
2023-01-29T02:09:30.377Z,26.20
2023-01-29T02:11:03.676Z,26.42
2023-01-29T02:12:38.305Z,22.17
2023-01-29T02:14:12.669Z,16.88
2023-01-29T02:15:48.835Z,19.55
2023-01-29T02:17:22.192Z,17.13
2023-01-29T02:18:56.481Z,26.63
2023-01-29T02:20:33.583Z,23.67
2023-01-29T02:22:30.813Z,30.30
2023-01-29T02:24:22.835Z,22.00
2023-01-29T02:26:33.427Z,18.85
2023-01-29T02:28:22.091Z,39.10
2023-01-29T02:30:03.312Z,36.45
2023-01-29T02:31:42.297Z,31.63
2023-01-29T02:33:23.116Z,22.20
2023-01-29T02:35:24.610Z,23.70
2023-01-29T02:37:04.243Z,19.40
2023-01-29T02:38:44.260Z,22.02
2023-01-29T02:40:30.126Z,23.17
2023-01-29T02:42:12.812Z,20.10
2023-01-29T02:43:49.404Z,21.25
2023-01-29T02:45:29.870Z,20.55
2023-01-29T02:47:10.902Z,21.23
2023-01-29T02:48:49.763Z,23.40
2023-01-29T02:50:32.581Z,31.58
2023-01-29T02:52:14.587Z,16.92
2023-01-29T02:53:54.727Z,15.68
2023-01-29T02:55:34.767Z,14.50
2023-01-29T02:57:16.352Z,25.50
2023-01-29T02:58:55.175Z,16.38
2023-01-29T03:00:35.124Z,21.95
2023-01-29T03:02:12.132Z,19.17
2023-01-29T03:03:50.658Z,17.50
2023-01-29T03:05:32.285Z,16.02
2023-01-29T03:07:10.767Z,17.25
2023-01-29T03:08:50.158Z,17.30
2023-01-29T03:10:31.071Z,19.88
2023-01-29T03:12:20.177Z,19.15
2023-01-29T03:14:01.084Z,21.40
2023-01-29T03:15:42.518Z,20.25
2023-01-29T03:17:38.659Z,20.77
2023-01-29T03:19:16.317Z,20.25
2023-01-29T03:20:54.782Z,18.90
2023-01-29T03:22:27.978Z,19.20
2023-01-29T03:24:19.475Z,17.92
2023-01-29T03:26:15.479Z,19.80
2023-01-29T03:28:10.726Z,16.70
2023-01-29T03:30:07.673Z,19.42
2023-01-29T03:32:07.464Z,15.07
2023-01-29T03:33:47.178Z,17.40
2023-01-29T03:35:36.865Z,18.98
2023-01-29T03:37:18.893Z,22.52
2023-01-29T03:38:52.564Z,18.23
2023-01-29T03:40:28.974Z,20.90
2023-01-29T03:42:08.971Z,20.65
2023-01-29T03:43:52.241Z,17.33
2023-01-29T03:45:42.743Z,15.70
2023-01-29T03:47:20.845Z,17.02
2023-01-29T03:49:00.625Z,13.90
2023-01-29T03:50:40.022Z,19.55
2023-01-29T03:52:21.003Z,18.17
2023-01-29T03:54:09.872Z,16.88
2023-01-29T03:55:54.361Z,15.88
2023-01-29T03:57:35.536Z,19.13
2023-01-29T03:59:22.428Z,23.75
2023-01-29T04:01:18.312Z,22.08
2023-01-29T04:02:59.539Z,21.75
2023-01-29T04:04:36.637Z,25.77
2023-01-29T04:06:14.833Z,31.60
2023-01-29T04:08:03.755Z,28.70
2023-01-29T04:09:43.795Z,28.00
2023-01-29T04:11:21.930Z,25.23
2023-01-29T04:12:59.867Z,38.47
2023-01-29T04:14:33.972Z,25.30
2023-01-29T04:16:13.973Z,196.77
2023-01-29T04:18:00.683Z,40.70
2023-01-29T04:19:44.064Z,22.33
2023-01-29T04:21:18.648Z,25.63
2023-01-29T04:22:53.258Z,26.55
2023-01-29T04:24:25.716Z,24.48
2023-01-29T04:26:32.183Z,31.98
2023-01-29T04:28:17.005Z,29.95
2023-01-29T04:30:04.545Z,33.22
2023-01-29T04:31:50.594Z,35.58
2023-01-29T04:33:35.670Z,33.38
2023-01-29T04:35:19.180Z,36.00
2023-01-29T04:37:04.021Z,42.88
2023-01-29T04:38:48.718Z,40.47
2023-01-29T04:40:26.699Z,44.90
2023-01-29T04:42:12.077Z,37.80
2023-01-29T04:43:52.836Z,34.17
2023-01-29T04:45:36.684Z,37.45
2023-01-29T04:47:20.961Z,28.15
2023-01-29T04:49:06.241Z,31.90
2023-01-29T04:50:42.930Z,25.13
2023-01-29T04:52:22.702Z,26.17
2023-01-29T04:54:03.531Z,31.15
2023-01-29T04:55:41.813Z,30.48
2023-01-29T04:57:23.338Z,25.75
2023-01-29T04:59:01.222Z,23.10
2023-01-29T05:00:38.330Z,29.35
2023-01-29T05:02:13.578Z,68.32
2023-01-29T05:03:51.721Z,69.43
2023-01-29T05:05:26.269Z,50.22
2023-01-29T05:07:01.623Z,50.72
2023-01-29T05:08:37.659Z,52.45
2023-01-29T05:10:12.217Z,43.13
2023-01-29T05:11:48.630Z,42.88
2023-01-29T05:13:24.560Z,43.00
2023-01-29T05:15:02.105Z,35.78
2023-01-29T05:16:42.217Z,20.60
2023-01-29T05:18:15.447Z,21.45
2023-01-29T05:19:49.257Z,15.35
2023-01-29T05:21:25.084Z,13.20
2023-01-29T05:22:57.184Z,10.10
2023-01-29T05:24:30.404Z,10.38
2023-01-29T05:26:04.016Z,10.55
2023-01-29T05:27:55.510Z,9.45
2023-01-29T05:29:27.849Z,12.90
2023-01-29T05:31:01.166Z,20.20
2023-01-29T05:32:34.418Z,15.60
2023-01-29T05:34:07.545Z,11.55
2023-01-29T05:35:39.905Z,10.48
2023-01-29T05:37:14.357Z,13.93
2023-01-29T05:38:47.523Z,15.63
2023-01-29T05:40:20.729Z,9.27
2023-01-29T05:41:53.830Z,10.07
2023-01-29T05:43:27.389Z,14.13
2023-01-29T05:44:59.498Z,14.48
2023-01-29T05:46:32.707Z,11.43
2023-01-29T05:48:06.254Z,11.60
2023-01-29T05:49:39.775Z,10.52
2023-01-29T05:51:13.025Z,12.32
2023-01-29T05:52:47.475Z,14.00
2023-01-29T05:54:20.666Z,11.85
2023-01-29T05:55:53.814Z,13.10
2023-01-29T05:57:26.928Z,16.23
2023-01-29T05:58:59.994Z,18.88
2023-01-29T06:00:33.217Z,15.20
2023-01-29T06:02:06.461Z,14.65
2023-01-29T06:03:38.809Z,21.65
2023-01-29T06:05:12.068Z,18.55
2023-01-29T06:06:45.345Z,14.70
2023-01-29T06:08:19.870Z,11.77
2023-01-29T06:09:53.279Z,12.02
2023-01-29T06:11:26.815Z,12.88
2023-01-29T06:13:00.128Z,11.63
2023-01-29T06:14:33.335Z,12.18
2023-01-29T06:16:07.390Z,13.70
2023-01-29T06:17:40.514Z,13.93
2023-01-29T06:19:13.849Z,227.13
2023-01-29T06:20:47.032Z,21.13
2023-01-29T06:22:20.253Z,27.73
2023-01-29T06:23:55.308Z,19.88
2023-01-29T06:25:28.729Z,53.63
2023-01-29T06:27:02.112Z,27.67
2023-01-29T06:28:35.648Z,23.38
2023-01-29T06:30:09.925Z,26.92
2023-01-29T06:31:43.354Z,30.38
2023-01-29T06:33:16.501Z,17.58
2023-01-29T06:34:49.898Z,29.25
2023-01-29T06:36:23.068Z,31.15
2023-01-29T06:37:57.486Z,19.13
2023-01-29T06:39:32.109Z,17.23
2023-01-29T06:41:10.576Z,13.35
2023-01-29T06:42:46.067Z,16.98
2023-01-29T06:44:19.698Z,15.35
2023-01-29T06:45:54.747Z,16.88
2023-01-29T06:47:29.049Z,26.23
2023-01-29T06:49:02.225Z,15.63
2023-01-29T06:50:35.405Z,27.15
2023-01-29T06:52:08.544Z,27.52
2023-01-29T06:53:44.006Z,20.25
2023-01-29T06:55:19.894Z,29.67
2023-01-29T06:56:53.701Z,33.13
2023-01-29T06:58:26.822Z,31.45
2023-01-29T06:59:59.691Z,25.42
2023-01-29T07:01:36.418Z,24.52
2023-01-29T07:03:11.739Z,14.07
2023-01-29T07:04:44.972Z,17.90
2023-01-29T07:06:18.318Z,18.13
2023-01-29T07:07:51.578Z,15.27
2023-01-29T07:09:24.795Z,20.08
2023-01-29T07:11:02.071Z,30.42
2023-01-29T07:12:35.334Z,19.42
2023-01-29T07:14:08.720Z,21.73
2023-01-29T07:15:46.544Z,18.23
2023-01-29T07:17:20.666Z,13.65
2023-01-29T07:18:54.047Z,11.35
2023-01-29T07:20:28.398Z,17.05
2023-01-29T07:22:02.680Z,17.02
2023-01-29T07:23:36.678Z,20.73
2023-01-29T07:25:11.142Z,25.15
2023-01-29T07:26:45.752Z,21.80
2023-01-29T07:28:20.467Z,23.65
2023-01-29T07:29:53.691Z,23.05
2023-01-29T07:31:27.071Z,22.88
2023-01-29T07:33:03.117Z,18.50
2023-01-29T07:34:36.811Z,15.68
2023-01-29T07:36:10.853Z,17.92
2023-01-29T07:37:44.179Z,20.77
2023-01-29T07:39:17.414Z,23.20
2023-01-29T07:40:50.923Z,17.55
2023-01-29T07:42:25.572Z,81.07
2023-01-29T07:43:59.101Z,36.45
2023-01-29T07:45:35.314Z,46.33
2023-01-29T07:47:08.584Z,32.42
2023-01-29T07:48:41.831Z,42.67
2023-01-29T07:50:15.850Z,33.33
2023-01-29T07:51:49.187Z,39.38
2023-01-29T07:53:22.661Z,31.10
2023-01-29T07:54:55.850Z,33.40
2023-01-29T07:56:29.122Z,27.15
2023-01-29T07:58:04.572Z,33.38
2023-01-29T07:59:37.866Z,45.65
2023-01-29T08:01:11.162Z,37.42
2023-01-29T08:02:44.512Z,37.20
2023-01-29T08:04:17.750Z,29.58
2023-01-29T08:05:51.156Z,25.20
2023-01-29T08:07:24.318Z,23.67
2023-01-29T08:08:59.770Z,22.65
2023-01-29T08:10:33.068Z,22.08
2023-01-29T08:12:06.593Z,20.38
2023-01-29T08:13:41.188Z,23.23
2023-01-29T08:15:14.343Z,24.67
2023-01-29T08:16:47.597Z,18.70
2023-01-29T08:18:20.924Z,23.20
2023-01-29T08:19:54.204Z,24.55
2023-01-29T08:21:27.351Z,23.60
2023-01-29T08:23:01.722Z,27.40
2023-01-29T08:24:47.720Z,33.38
2023-01-29T08:26:28.489Z,27.48
2023-01-29T08:28:02.245Z,26.60
2023-01-29T08:29:37.295Z,26.67
2023-01-29T08:31:15.899Z,19.63
2023-01-29T08:32:49.087Z,18.52
2023-01-29T08:34:22.241Z,43.95
2023-01-29T08:35:55.450Z,55.47
2023-01-29T08:37:28.603Z,83.30
2023-01-29T08:39:01.736Z,65.35
2023-01-29T08:40:36.537Z,46.60
2023-01-29T08:42:09.737Z,28.92
2023-01-29T08:43:43.040Z,20.08
2023-01-29T08:45:17.897Z,20.88
2023-01-29T08:46:51.062Z,33.17
2023-01-29T08:48:25.511Z,28.88
2023-01-29T08:49:58.653Z,22.52
2023-01-29T08:51:31.963Z,20.98
2023-01-29T08:53:07.844Z,21.30
2023-01-29T08:54:40.979Z,20.58
2023-01-29T08:56:14.083Z,19.65
2023-01-29T08:57:47.517Z,18.45
2023-01-29T08:59:22.901Z,32.13
2023-01-29T09:00:57.478Z,35.53
2023-01-29T09:02:30.730Z,34.80
2023-01-29T09:04:03.843Z,35.28
2023-01-29T09:05:37.296Z,28.45
2023-01-29T09:07:10.495Z,27.40
2023-01-29T09:08:43.618Z,22.42
2023-01-29T09:10:17.588Z,22.45
2023-01-29T09:11:50.755Z,24.35
2023-01-29T09:13:25.165Z,22.48
2023-01-29T09:14:58.291Z,25.02
2023-01-29T09:16:32.886Z,23.40
2023-01-29T09:18:06.970Z,22.10
2023-01-29T09:19:40.394Z,19.00
2023-01-29T09:21:13.545Z,19.00
2023-01-29T09:22:47.212Z,19.13
2023-01-29T09:24:20.318Z,24.08
2023-01-29T09:25:53.481Z,34.30
2023-01-29T09:27:26.680Z,23.50
2023-01-29T09:29:04.771Z,25.63
2023-01-29T09:30:38.680Z,27.75
2023-01-29T09:32:19.794Z,25.17
2023-01-29T09:34:05.602Z,24.90
2023-01-29T09:35:41.344Z,22.58
2023-01-29T09:37:14.719Z,25.98
2023-01-29T09:38:48.377Z,18.00
2023-01-29T09:40:27.386Z,19.20
2023-01-29T09:42:11.579Z,19.20
2023-01-29T09:43:49.033Z,26.55
2023-01-29T09:45:25.777Z,24.52
2023-01-29T09:47:01.359Z,23.73
2023-01-29T09:48:38.127Z,23.30
2023-01-29T09:50:20.230Z,101.22
2023-01-29T09:51:59.546Z,42.33
2023-01-29T09:53:40.526Z,22.27
2023-01-29T09:55:21.534Z,19.17
2023-01-29T09:57:06.539Z,21.08
2023-01-29T09:58:42.260Z,25.17
2023-01-29T10:00:18.355Z,24.77
2023-01-29T10:02:01.193Z,25.45
2023-01-29T10:04:02.294Z,31.55
2023-01-29T10:05:55.354Z,23.65
2023-01-29T10:07:46.395Z,28.08
2023-01-29T10:10:00.645Z,40.20
2023-01-29T10:11:40.696Z,28.08
2023-01-29T10:13:21.742Z,27.70
2023-01-29T10:15:04.870Z,21.65
2023-01-29T10:16:51.469Z,22.15
2023-01-29T10:18:51.333Z,53.38
2023-01-29T10:20:52.527Z,38.83
2023-01-29T10:22:51.660Z,58.85
2023-01-29T10:24:34.643Z,30.20
2023-01-29T10:26:12.650Z,96.32
2023-01-29T10:27:50.961Z,34.85
2023-01-29T10:29:25.069Z,39.33
2023-01-29T10:31:05.117Z,26.25
2023-01-29T10:32:39.635Z,31.88
2023-01-29T10:34:16.141Z,23.85
2023-01-29T10:35:55.906Z,26.17
2023-01-29T10:37:38.326Z,33.00
2023-01-29T10:39:17.870Z,33.28
2023-01-29T10:40:57.840Z,35.50
2023-01-29T10:42:39.472Z,30.65
2023-01-29T10:44:26.037Z,30.45
2023-01-29T10:46:09.966Z,26.55
2023-01-29T10:48:04.343Z,22.80
2023-01-29T10:50:01.429Z,25.77
2023-01-29T10:51:56.544Z,23.35
2023-01-29T10:53:42.292Z,19.58
2023-01-29T10:55:27.982Z,19.98
2023-01-29T10:57:11.012Z,22.67
2023-01-29T10:58:50.532Z,21.38
2023-01-29T11:00:27.034Z,22.73
2023-01-29T11:02:00.663Z,20.98
2023-01-29T11:03:35.110Z,52.78
2023-01-29T11:05:20.705Z,27.77
2023-01-29T11:06:55.663Z,25.27
2023-01-29T11:08:35.789Z,21.98
2023-01-29T11:10:15.797Z,25.00
2023-01-29T11:11:52.102Z,19.80
2023-01-29T11:13:40.595Z,20.52
2023-01-29T11:15:20.464Z,22.85
2023-01-29T11:16:53.826Z,19.35
2023-01-29T11:18:27.444Z,18.58
2023-01-29T11:20:00.903Z,18.00
2023-01-29T11:21:34.081Z,115.70
2023-01-29T11:23:26.606Z,27.08
2023-01-29T11:25:14.071Z,25.55
2023-01-29T11:26:49.968Z,21.65
2023-01-29T11:28:37.707Z,19.20
2023-01-29T11:30:18.088Z,24.75
2023-01-29T11:31:51.666Z,21.90
2023-01-29T11:33:25.418Z,28.05
2023-01-29T11:35:04.068Z,30.85
2023-01-29T11:36:39.822Z,43.25
2023-01-29T11:38:22.792Z,28.33
2023-01-29T11:39:55.984Z,22.92
2023-01-29T11:41:29.164Z,26.02
2023-01-29T11:43:23.502Z,38.63
2023-01-29T11:44:56.783Z,25.35
2023-01-29T11:46:30.206Z,19.90
2023-01-29T11:48:03.939Z,22.35
2023-01-29T11:49:38.271Z,23.88
2023-01-29T11:51:14.487Z,20.83
2023-01-29T11:52:47.689Z,29.52
2023-01-29T11:54:26.932Z,30.63
2023-01-29T11:56:02.684Z,21.95
2023-01-29T11:57:38.880Z,24.38
2023-01-29T11:59:31.677Z,18.98
2023-01-29T12:01:06.899Z,17.13
2023-01-29T12:02:45.762Z,21.80
2023-01-29T12:04:23.416Z,22.45
2023-01-29T12:05:59.942Z,27.58
2023-01-29T12:07:34.237Z,16.25
2023-01-29T12:09:16.886Z,21.50
2023-01-29T12:10:51.882Z,17.85
2023-01-29T12:12:34.204Z,21.80
2023-01-29T12:14:28.054Z,19.17
2023-01-29T12:16:16.856Z,22.42
2023-01-29T12:17:57.568Z,23.85
2023-01-29T12:19:35.977Z,23.40
2023-01-29T12:21:16.043Z,15.93
2023-01-29T12:22:54.765Z,21.02
2023-01-29T12:24:35.856Z,17.08
2023-01-29T12:26:16.383Z,23.52
2023-01-29T12:27:56.103Z,38.28
2023-01-29T12:29:41.764Z,48.10
2023-01-29T12:31:31.124Z,32.70
2023-01-29T12:33:13.708Z,29.45
2023-01-29T12:34:52.480Z,21.73
2023-01-29T12:36:31.584Z,39.85
2023-01-29T12:38:11.253Z,20.27
2023-01-29T12:39:44.475Z,18.55
2023-01-29T12:41:35.061Z,22.85
2023-01-29T12:43:16.597Z,23.42
2023-01-29T12:44:54.508Z,21.00
2023-01-29T12:46:32.548Z,19.85
2023-01-29T12:48:09.843Z,20.17
2023-01-29T12:49:46.676Z,24.45
2023-01-29T12:51:24.680Z,23.25
2023-01-29T12:53:02.042Z,17.80
2023-01-29T12:54:40.968Z,30.88
2023-01-29T12:56:19.444Z,35.38
2023-01-29T12:57:58.595Z,13.70
2023-01-29T12:59:37.741Z,41.50
2023-01-29T13:01:18.310Z,22.33
2023-01-29T13:02:59.981Z,30.63
2023-01-29T13:04:40.326Z,32.95
2023-01-29T13:06:18.513Z,23.35
2023-01-29T13:07:58.174Z,20.55
2023-01-29T13:09:38.302Z,29.27
2023-01-29T13:11:18.079Z,23.05
2023-01-29T13:12:58.527Z,26.70
2023-01-29T13:14:41.942Z,31.23
2023-01-29T13:16:22.413Z,25.05
2023-01-29T13:18:00.216Z,21.75
2023-01-29T13:19:38.196Z,21.17
2023-01-29T13:21:17.280Z,27.70
2023-01-29T13:22:53.578Z,31.27
2023-01-29T13:24:32.696Z,28.48
2023-01-29T13:26:06.894Z,44.33
2023-01-29T13:27:40.704Z,43.83
2023-01-29T13:29:23.672Z,50.58
2023-01-29T13:31:18.475Z,36.30
2023-01-29T13:32:54.409Z,45.42
2023-01-29T13:34:31.813Z,29.92
2023-01-29T13:36:06.185Z,40.80
2023-01-29T13:37:48.611Z,34.95
2023-01-29T13:39:28.388Z,43.08
2023-01-29T13:41:05.635Z,36.55
2023-01-29T13:42:43.918Z,37.63
2023-01-29T13:44:24.859Z,36.60
2023-01-29T13:45:58.065Z,36.15
2023-01-29T13:47:33.374Z,23.85
2023-01-29T13:49:07.034Z,23.65
2023-01-29T13:50:44.325Z,28.73
2023-01-29T13:52:25.333Z,30.85
2023-01-29T13:54:02.144Z,28.23
2023-01-29T13:55:37.376Z,33.75
2023-01-29T13:57:35.544Z,34.13
2023-01-29T13:59:24.177Z,45.92
2023-01-29T14:01:01.156Z,43.25
2023-01-29T14:02:34.557Z,42.78
2023-01-29T14:04:25.695Z,42.30
2023-01-29T14:06:00.306Z,33.10
2023-01-29T14:07:50.219Z,30.48
2023-01-29T14:10:14.217Z,29.70
2023-01-29T14:11:49.679Z,31.40
2023-01-29T14:13:35.402Z,45.25
2023-01-29T14:15:32.057Z,47.83
2023-01-29T14:17:04.326Z,62.22
2023-01-29T14:18:46.104Z,33.70
2023-01-29T14:20:22.319Z,35.92
2023-01-29T14:21:56.056Z,45.10
2023-01-29T14:23:35.937Z,62.97
2023-01-29T14:25:17.948Z,56.75
2023-01-29T14:26:56.261Z,42.10
2023-01-29T14:28:32.376Z,266.15
2023-01-29T14:30:11.061Z,99.95
2023-01-29T14:31:50.574Z,67.40
2023-01-29T14:33:30.045Z,40.75
2023-01-29T14:35:05.530Z,34.35
2023-01-29T14:36:43.314Z,34.13
2023-01-29T14:38:16.692Z,36.00
2023-01-29T14:39:51.420Z,36.53
2023-01-29T14:41:28.376Z,43.30
2023-01-29T14:43:04.115Z,48.05
2023-01-29T14:45:12.564Z,55.75
2023-01-29T14:46:47.494Z,59.40
2023-01-29T14:48:38.816Z,51.10
2023-01-29T14:50:43.688Z,62.15
2023-01-29T14:52:18.587Z,61.58
2023-01-29T14:54:00.550Z,48.10
2023-01-29T14:55:40.938Z,63.53
2023-01-29T14:57:16.534Z,55.35
2023-01-29T14:58:55.992Z,55.08
2023-01-29T15:00:31.985Z,60.03
2023-01-29T15:02:18.104Z,56.42
2023-01-29T15:03:54.487Z,61.03
2023-01-29T15:05:32.710Z,61.70
2023-01-29T15:07:18.121Z,60.75
2023-01-29T15:08:58.612Z,57.92
2023-01-29T15:11:09.527Z,54.60
2023-01-29T15:12:49.663Z,54.67
2023-01-29T15:14:30.510Z,58.30
2023-01-29T15:16:10.854Z,60.03
2023-01-29T15:17:55.189Z,63.58
2023-01-29T15:19:33.153Z,66.35
2023-01-29T15:21:13.025Z,98.10
2023-01-29T15:22:46.417Z,99.50
2023-01-29T15:24:19.860Z,107.90
2023-01-29T15:25:55.359Z,97.05
2023-01-29T15:27:29.971Z,109.65
2023-01-29T15:29:04.849Z,138.13
2023-01-29T15:30:39.621Z,135.75
2023-01-29T15:32:32.671Z,131.82
2023-01-29T15:34:08.765Z,68.18
2023-01-29T15:35:43.784Z,93.28
2023-01-29T15:37:31.698Z,134.57
2023-01-29T15:39:16.826Z,99.70
2023-01-29T15:40:54.129Z,90.93
2023-01-29T15:42:29.672Z,102.18
2023-01-29T15:44:03.470Z,100.38
2023-01-29T15:45:41.963Z,102.13
2023-01-29T15:47:16.703Z,197.55
2023-01-29T15:48:51.602Z,120.10
2023-01-29T15:50:26.434Z,61.40
2023-01-29T15:52:02.531Z,64.18
2023-01-29T15:53:42.456Z,55.25
2023-01-29T15:55:17.796Z,59.03
2023-01-29T15:56:53.619Z,62.35
2023-01-29T15:58:33.020Z,45.67
2023-01-29T16:00:08.614Z,44.90
2023-01-29T16:01:45.076Z,42.50
2023-01-29T16:03:18.557Z,52.63
2023-01-29T16:04:51.928Z,50.83
2023-01-29T16:06:27.141Z,58.38
2023-01-29T16:08:02.247Z,59.92
2023-01-29T16:09:36.739Z,73.47
2023-01-29T16:11:11.062Z,69.70
2023-01-29T16:12:51.559Z,69.95
2023-01-29T16:14:27.011Z,69.70
2023-01-29T16:16:02.219Z,104.88
2023-01-29T16:17:36.467Z,180.95
2023-01-29T16:19:21.219Z,85.75
2023-01-29T16:20:56.210Z,75.57
2023-01-29T16:22:34.803Z,105.75
2023-01-29T16:24:12.245Z,168.48
2023-01-29T16:25:45.797Z,108.35
2023-01-29T16:27:19.478Z,113.57
2023-01-29T16:28:53.857Z,109.78
2023-01-29T16:30:29.146Z,100.55
2023-01-29T16:32:03.883Z,113.38
2023-01-29T16:33:48.410Z,125.00
2023-01-29T16:35:21.819Z,98.82
2023-01-29T16:36:56.589Z,102.50
2023-01-29T16:38:34.628Z,96.43
2023-01-29T16:40:17.561Z,94.47
2023-01-29T16:42:23.990Z,87.20
2023-01-29T16:43:59.642Z,88.07
2023-01-29T16:45:33.061Z,81.07
2023-01-29T16:47:15.053Z,72.07
2023-01-29T16:48:49.109Z,73.05
2023-01-29T16:50:36.062Z,79.07
2023-01-29T16:52:19.601Z,95.60
2023-01-29T16:54:04.069Z,109.10
2023-01-29T16:55:40.968Z,113.93
2023-01-29T16:57:17.868Z,83.72
2023-01-29T16:58:51.849Z,77.47
2023-01-29T17:00:27.833Z,92.65
2023-01-29T17:02:01.595Z,109.18
2023-01-29T17:03:37.281Z,103.68
2023-01-29T17:05:22.187Z,85.43
2023-01-29T17:06:58.605Z,109.32
2023-01-29T17:08:34.642Z,83.35
2023-01-29T17:10:18.556Z,52.88
2023-01-29T17:11:56.971Z,56.67
2023-01-29T17:13:36.018Z,52.50
2023-01-29T17:15:35.325Z,61.22
2023-01-29T17:17:15.866Z,64.97
2023-01-29T17:18:49.584Z,81.15
2023-01-29T17:20:23.811Z,91.40
2023-01-29T17:21:58.631Z,88.05
2023-01-29T17:23:32.258Z,122.55
2023-01-29T17:25:06.527Z,70.57
2023-01-29T17:26:42.000Z,82.88
2023-01-29T17:28:17.379Z,90.25
2023-01-29T17:29:52.714Z,66.22
2023-01-29T17:31:27.597Z,79.68
2023-01-29T17:33:03.201Z,96.88
2023-01-29T17:34:36.874Z,75.85
2023-01-29T17:36:13.541Z,87.10
2023-01-29T17:37:46.928Z,82.80
2023-01-29T17:39:23.603Z,86.15
2023-01-29T17:40:59.745Z,110.78
2023-01-29T17:42:34.445Z,72.20
2023-01-29T17:44:07.901Z,125.30
2023-01-29T17:45:43.055Z,238.35
2023-01-29T17:47:16.710Z,169.10
2023-01-29T17:48:50.713Z,110.43
2023-01-29T17:50:26.401Z,106.55
2023-01-29T17:51:59.949Z,92.65
2023-01-29T17:53:45.631Z,77.80
2023-01-29T17:55:21.708Z,86.20
2023-01-29T17:56:55.805Z,68.65
2023-01-29T17:58:30.537Z,69.50
2023-01-29T18:00:04.260Z,77.70
2023-01-29T18:01:43.187Z,82.15
2023-01-29T18:03:19.757Z,147.10
2023-01-29T18:04:53.023Z,158.75
2023-01-29T18:06:29.497Z,141.00
2023-01-29T18:08:03.524Z,169.05
2023-01-29T18:09:39.682Z,160.73
2023-01-29T18:11:14.253Z,111.82
2023-01-29T18:12:48.757Z,130.32
2023-01-29T18:14:28.246Z,119.95
2023-01-29T18:16:02.386Z,78.00
2023-01-29T18:17:35.806Z,70.30
2023-01-29T18:19:15.420Z,164.60
2023-01-29T18:20:49.170Z,111.93
2023-01-29T18:22:22.962Z,122.57
2023-01-29T18:23:59.052Z,130.88
2023-01-29T18:25:32.720Z,152.52
2023-01-29T18:27:06.397Z,109.53
2023-01-29T18:28:40.921Z,113.30
2023-01-29T18:30:16.652Z,121.80
2023-01-29T18:31:52.141Z,123.93
2023-01-29T18:33:26.934Z,126.38
2023-01-29T18:35:00.620Z,169.65
2023-01-29T18:36:33.943Z,158.20
2023-01-29T18:38:08.242Z,147.20
2023-01-29T18:39:41.687Z,117.57
2023-01-29T18:41:15.303Z,117.95
2023-01-29T18:42:48.948Z,106.22
2023-01-29T18:44:22.045Z,113.50
2023-01-29T18:46:00.396Z,136.20
2023-01-29T18:47:34.054Z,77.93
2023-01-29T18:49:07.535Z,76.25
2023-01-29T18:50:40.774Z,74.72
2023-01-29T18:52:14.359Z,81.53
2023-01-29T18:53:51.208Z,82.72
2023-01-29T18:55:26.747Z,61.13
2023-01-29T18:57:13.728Z,53.95
2023-01-29T18:58:58.602Z,56.50
2023-01-29T19:00:32.516Z,52.10
2023-01-29T19:02:07.242Z,53.03
2023-01-29T19:03:41.991Z,50.17
2023-01-29T19:05:17.465Z,47.50
2023-01-29T19:06:50.828Z,54.45
2023-01-29T19:08:24.096Z,71.72
2023-01-29T19:10:00.469Z,113.95
2023-01-29T19:11:34.494Z,133.95
2023-01-29T19:13:08.146Z,118.97
2023-01-29T19:14:41.590Z,86.78
2023-01-29T19:16:14.929Z,89.15
2023-01-29T19:17:50.121Z,82.93
2023-01-29T19:19:23.418Z,64.40
2023-01-29T19:20:59.452Z,76.18
2023-01-29T19:22:33.126Z,79.32
2023-01-29T19:24:10.464Z,65.63
2023-01-29T19:25:43.683Z,72.60
2023-01-29T19:57:33.962Z,150.50
2023-01-29T19:59:08.776Z,136.43
2023-01-29T20:00:42.155Z,143.38
2023-01-29T20:02:15.608Z,115.75
2023-01-29T20:03:50.383Z,149.07
2023-01-29T20:05:24.253Z,163.52
2023-01-29T20:06:57.453Z,175.88
2023-01-29T20:08:30.762Z,168.05
2023-01-29T20:10:04.418Z,136.32
2023-01-29T20:11:38.020Z,144.68
2023-01-29T20:13:11.252Z,142.23
2023-01-29T20:14:51.316Z,153.25
2023-01-29T20:16:25.678Z,140.82
2023-01-29T20:18:00.108Z,141.80
2023-01-29T20:19:35.353Z,100.20
2023-01-29T20:21:11.042Z,90.45
2023-01-29T20:22:44.965Z,82.63
2023-01-29T20:24:18.883Z,62.58
2023-01-29T20:25:52.498Z,41.88
2023-01-29T20:27:26.046Z,33.05
2023-01-29T20:28:59.475Z,29.17
2023-01-29T20:30:34.833Z,28.38
2023-01-29T20:32:09.409Z,21.52
2023-01-29T20:33:43.625Z,18.10
2023-01-29T20:35:17.190Z,24.58
2023-01-29T20:36:50.694Z,18.45
2023-01-29T20:38:26.097Z,23.08
2023-01-29T20:39:59.446Z,8.40
2023-01-29T20:41:33.349Z,20.45
2023-01-29T20:43:06.748Z,26.38
2023-01-29T20:44:40.160Z,15.93
2023-01-29T20:46:15.166Z,20.17
2023-01-29T20:47:48.890Z,21.10
2023-01-29T20:49:22.548Z,17.88
2023-01-29T20:50:56.025Z,19.77
2023-01-29T20:52:29.270Z,27.92
2023-01-29T20:54:02.920Z,24.67
2023-01-29T20:55:36.900Z,26.83
2023-01-29T20:57:10.511Z,25.63
2023-01-29T20:58:43.990Z,23.73
2023-01-29T21:00:18.501Z,21.98
2023-01-29T21:01:53.847Z,21.48
2023-01-29T21:03:27.257Z,18.35
2023-01-29T21:05:00.535Z,10.45
2023-01-29T21:06:34.196Z,22.70
2023-01-29T21:08:08.062Z,11.02
2023-01-29T21:09:42.370Z,20.20
2023-01-29T21:11:15.553Z,20.90
2023-01-29T21:12:48.914Z,20.73
2023-01-29T21:14:22.038Z,14.57
2023-01-29T21:15:55.740Z,17.45
2023-01-29T21:17:30.343Z,14.95
2023-01-29T21:19:03.784Z,27.10
2023-01-29T21:20:37.014Z,34.08
2023-01-29T21:22:10.294Z,23.42
2023-01-29T21:23:43.624Z,25.25
2023-01-29T21:25:19.567Z,23.65
2023-01-29T21:26:52.709Z,19.00